sensor_id;sensor_type;location;lat;lon;timestamp;P1;durP1;ratioP1;P2;durP2;ratioP2
10418;SDS011;5256;48.728;9.140;2023-03-25T00:01:56;0.50;;;0.50;;
10418;SDS011;5256;48.728;9.140;2023-03-25T00:04:22;0.60;;;0.60;;
10418;SDS011;5256;48.728;9.140;2023-03-25T00:06:52;0.60;;;0.60;;
10418;SDS011;5256;48.728;9.140;2023-03-25T00:09:18;0.60;;;0.60;;
10418;SDS011;5256;48.728;9.140;2023-03-25T00:11:44;0.57;;;0.57;;
10418;SDS011;5256;48.728;9.140;2023-03-25T00:14:10;0.50;;;0.50;;
10418;SDS011;5256;48.728;9.140;2023-03-25T00:16:36;0.53;;;0.53;;
10418;SDS011;5256;48.728;9.140;2023-03-25T00:19:02;0.50;;;0.50;;
10418;SDS011;5256;48.728;9.140;2023-03-25T00:21:27;0.60;;;0.60;;
10418;SDS011;5256;48.728;9.140;2023-03-25T00:23:53;0.50;;;0.50;;
10418;SDS011;5256;48.728;9.140;2023-03-25T00:26:19;0.50;;;0.50;;
10418;SDS011;5256;48.728;9.140;2023-03-25T00:28:45;0.60;;;0.60;;
10418;SDS011;5256;48.728;9.140;2023-03-25T00:31:11;0.60;;;0.60;;
10418;SDS011;5256;48.728;9.140;2023-03-25T00:33:37;0.50;;;0.50;;
10418;SDS011;5256;48.728;9.140;2023-03-25T00:36:05;0.50;;;0.50;;
10418;SDS011;5256;48.728;9.140;2023-03-25T00:38:32;0.50;;;0.50;;
10418;SDS011;5256;48.728;9.140;2023-03-25T00:43:47;0.60;;;0.60;;
10418;SDS011;5256;48.728;9.140;2023-03-25T00:46:14;0.60;;;0.60;;
10418;SDS011;5256;48.728;9.140;2023-03-25T00:48:40;0.50;;;0.50;;
10418;SDS011;5256;48.728;9.140;2023-03-25T00:51:07;0.60;;;0.60;;
10418;SDS011;5256;48.728;9.140;2023-03-25T00:53:34;0.60;;;0.60;;
10418;SDS011;5256;48.728;9.140;2023-03-25T00:56:01;0.60;;;0.60;;
10418;SDS011;5256;48.728;9.140;2023-03-25T00:58:28;0.60;;;0.60;;
10418;SDS011;5256;48.728;9.140;2023-03-25T01:00:54;0.60;;;0.60;;
10418;SDS011;5256;48.728;9.140;2023-03-25T01:03:21;0.50;;;0.50;;
10418;SDS011;5256;48.728;9.140;2023-03-25T01:05:48;0.50;;;0.50;;
10418;SDS011;5256;48.728;9.140;2023-03-25T01:08:14;0.50;;;0.50;;
10418;SDS011;5256;48.728;9.140;2023-03-25T01:10:41;0.50;;;0.50;;
10418;SDS011;5256;48.728;9.140;2023-03-25T01:13:08;0.50;;;0.50;;
10418;SDS011;5256;48.728;9.140;2023-03-25T01:15:34;0.60;;;0.60;;
10418;SDS011;5256;48.728;9.140;2023-03-25T01:17:59;0.53;;;0.53;;
10418;SDS011;5256;48.728;9.140;2023-03-25T01:20:25;0.60;;;0.60;;
10418;SDS011;5256;48.728;9.140;2023-03-25T01:22:51;0.70;;;0.70;;
10418;SDS011;5256;48.728;9.140;2023-03-25T01:25:16;0.60;;;0.60;;
10418;SDS011;5256;48.728;9.140;2023-03-25T01:27:42;0.50;;;0.50;;
10418;SDS011;5256;48.728;9.140;2023-03-25T01:30:08;0.50;;;0.50;;
10418;SDS011;5256;48.728;9.140;2023-03-25T01:32:35;0.60;;;0.60;;
10418;SDS011;5256;48.728;9.140;2023-03-25T01:35:00;0.60;;;0.60;;
10418;SDS011;5256;48.728;9.140;2023-03-25T01:37:26;0.50;;;0.50;;
10418;SDS011;5256;48.728;9.140;2023-03-25T01:39:51;0.60;;;0.60;;
10418;SDS011;5256;48.728;9.140;2023-03-25T01:42:17;0.60;;;0.60;;
10418;SDS011;5256;48.728;9.140;2023-03-25T01:47:08;0.60;;;0.60;;
10418;SDS011;5256;48.728;9.140;2023-03-25T01:49:38;0.50;;;0.50;;
10418;SDS011;5256;48.728;9.140;2023-03-25T01:52:09;0.50;;;0.50;;
10418;SDS011;5256;48.728;9.140;2023-03-25T01:54:40;0.70;;;0.70;;
10418;SDS011;5256;48.728;9.140;2023-03-25T01:57:07;0.60;;;0.60;;
10418;SDS011;5256;48.728;9.140;2023-03-25T01:59:36;0.60;;;0.60;;
10418;SDS011;5256;48.728;9.140;2023-03-25T02:02:03;0.60;;;0.60;;
10418;SDS011;5256;48.728;9.140;2023-03-25T02:04:34;0.50;;;0.50;;
10418;SDS011;5256;48.728;9.140;2023-03-25T02:07:06;0.60;;;0.60;;
10418;SDS011;5256;48.728;9.140;2023-03-25T02:09:33;0.60;;;0.60;;
10418;SDS011;5256;48.728;9.140;2023-03-25T02:11:58;0.50;;;0.50;;
10418;SDS011;5256;48.728;9.140;2023-03-25T02:14:25;0.50;;;0.50;;
10418;SDS011;5256;48.728;9.140;2023-03-25T02:16:59;0.60;;;0.60;;
10418;SDS011;5256;48.728;9.140;2023-03-25T02:37:07;0.50;;;0.50;;
10418;SDS011;5256;48.728;9.140;2023-03-25T02:40:13;0.60;;;0.60;;
10418;SDS011;5256;48.728;9.140;2023-03-25T02:42:48;0.60;;;0.60;;
10418;SDS011;5256;48.728;9.140;2023-03-25T02:45:21;0.57;;;0.57;;
10418;SDS011;5256;48.728;9.140;2023-03-25T02:47:52;0.60;;;0.60;;
10418;SDS011;5256;48.728;9.140;2023-03-25T02:50:22;0.60;;;0.60;;
10418;SDS011;5256;48.728;9.140;2023-03-25T02:53:13;0.60;;;0.60;;
10418;SDS011;5256;48.728;9.140;2023-03-25T02:55:43;0.60;;;0.60;;
10418;SDS011;5256;48.728;9.140;2023-03-25T02:58:11;0.50;;;0.50;;
10418;SDS011;5256;48.728;9.140;2023-03-25T03:00:40;0.60;;;0.60;;
10418;SDS011;5256;48.728;9.140;2023-03-25T03:03:07;0.60;;;0.60;;
10418;SDS011;5256;48.728;9.140;2023-03-25T03:05:33;0.60;;;0.60;;
10418;SDS011;5256;48.728;9.140;2023-03-25T03:15:53;0.60;;;0.60;;
10418;SDS011;5256;48.728;9.140;2023-03-25T03:18:39;0.60;;;0.60;;
10418;SDS011;5256;48.728;9.140;2023-03-25T03:21:14;0.70;;;0.70;;
10418;SDS011;5256;48.728;9.140;2023-03-25T03:26:58;0.60;;;0.60;;
10418;SDS011;5256;48.728;9.140;2023-03-25T03:29:53;0.77;;;0.77;;
10418;SDS011;5256;48.728;9.140;2023-03-25T03:32:21;0.60;;;0.60;;
10418;SDS011;5256;48.728;9.140;2023-03-25T03:35:04;0.70;;;0.70;;
10418;SDS011;5256;48.728;9.140;2023-03-25T03:37:35;0.60;;;0.60;;
10418;SDS011;5256;48.728;9.140;2023-03-25T03:40:05;0.70;;;0.70;;
10418;SDS011;5256;48.728;9.140;2023-03-25T03:45:11;0.70;;;0.70;;
10418;SDS011;5256;48.728;9.140;2023-03-25T03:47:42;0.60;;;0.60;;
10418;SDS011;5256;48.728;9.140;2023-03-25T03:50:18;0.60;;;0.60;;
10418;SDS011;5256;48.728;9.140;2023-03-25T03:58:16;0.60;;;0.60;;
10418;SDS011;5256;48.728;9.140;2023-03-25T04:00:50;0.60;;;0.60;;
10418;SDS011;5256;48.728;9.140;2023-03-25T04:06:24;0.60;;;0.60;;
10418;SDS011;5256;48.728;9.140;2023-03-25T04:09:15;0.60;;;0.60;;
10418;SDS011;5256;48.728;9.140;2023-03-25T04:12:02;0.60;;;0.60;;
10418;SDS011;5256;48.728;9.140;2023-03-25T04:14:52;0.60;;;0.60;;
10418;SDS011;5256;48.728;9.140;2023-03-25T04:17:24;0.60;;;0.60;;
10418;SDS011;5256;48.728;9.140;2023-03-25T04:19:49;0.70;;;0.70;;
10418;SDS011;5256;48.728;9.140;2023-03-25T04:22:17;0.70;;;0.70;;
10418;SDS011;5256;48.728;9.140;2023-03-25T04:24:45;0.60;;;0.60;;
10418;SDS011;5256;48.728;9.140;2023-03-25T04:27:14;0.60;;;0.60;;
10418;SDS011;5256;48.728;9.140;2023-03-25T04:29:40;0.60;;;0.60;;
10418;SDS011;5256;48.728;9.140;2023-03-25T04:32:07;0.60;;;0.60;;
10418;SDS011;5256;48.728;9.140;2023-03-25T04:34:35;0.60;;;0.60;;
10418;SDS011;5256;48.728;9.140;2023-03-25T04:37:00;0.60;;;0.60;;
10418;SDS011;5256;48.728;9.140;2023-03-25T04:39:26;0.60;;;0.60;;
10418;SDS011;5256;48.728;9.140;2023-03-25T04:41:53;0.70;;;0.70;;
10418;SDS011;5256;48.728;9.140;2023-03-25T04:44:20;0.70;;;0.70;;
10418;SDS011;5256;48.728;9.140;2023-03-25T04:46:49;0.60;;;0.60;;
10418;SDS011;5256;48.728;9.140;2023-03-25T04:49:17;0.70;;;0.70;;
10418;SDS011;5256;48.728;9.140;2023-03-25T04:51:45;0.60;;;0.60;;
10418;SDS011;5256;48.728;9.140;2023-03-25T04:54:13;0.70;;;0.70;;
10418;SDS011;5256;48.728;9.140;2023-03-25T04:56:39;0.60;;;0.60;;
10418;SDS011;5256;48.728;9.140;2023-03-25T04:59:04;0.70;;;0.70;;
10418;SDS011;5256;48.728;9.140;2023-03-25T05:01:30;0.70;;;0.70;;
10418;SDS011;5256;48.728;9.140;2023-03-25T05:04:00;0.70;;;0.70;;
10418;SDS011;5256;48.728;9.140;2023-03-25T05:06:31;0.60;;;0.60;;
10418;SDS011;5256;48.728;9.140;2023-03-25T05:08:58;0.60;;;0.60;;
10418;SDS011;5256;48.728;9.140;2023-03-25T05:11:27;0.60;;;0.60;;
10418;SDS011;5256;48.728;9.140;2023-03-25T05:13:53;0.70;;;0.70;;
10418;SDS011;5256;48.728;9.140;2023-03-25T05:16:19;0.70;;;0.70;;
10418;SDS011;5256;48.728;9.140;2023-03-25T05:18:45;0.63;;;0.63;;
10418;SDS011;5256;48.728;9.140;2023-03-25T05:21:11;0.60;;;0.60;;
10418;SDS011;5256;48.728;9.140;2023-03-25T05:23:36;0.60;;;0.60;;
10418;SDS011;5256;48.728;9.140;2023-03-25T05:26:02;0.60;;;0.60;;
10418;SDS011;5256;48.728;9.140;2023-03-25T05:28:28;0.60;;;0.60;;
10418;SDS011;5256;48.728;9.140;2023-03-25T05:30:54;0.70;;;0.70;;
10418;SDS011;5256;48.728;9.140;2023-03-25T05:33:20;0.60;;;0.60;;
10418;SDS011;5256;48.728;9.140;2023-03-25T05:35:47;0.60;;;0.60;;
10418;SDS011;5256;48.728;9.140;2023-03-25T05:38:13;0.70;;;0.70;;
10418;SDS011;5256;48.728;9.140;2023-03-25T05:40:46;0.70;;;0.70;;
10418;SDS011;5256;48.728;9.140;2023-03-25T05:43:15;0.70;;;0.70;;
10418;SDS011;5256;48.728;9.140;2023-03-25T05:45:41;0.60;;;0.60;;
10418;SDS011;5256;48.728;9.140;2023-03-25T05:48:07;0.70;;;0.70;;
10418;SDS011;5256;48.728;9.140;2023-03-25T05:50:33;0.60;;;0.60;;
10418;SDS011;5256;48.728;9.140;2023-03-25T05:53:00;0.60;;;0.60;;
10418;SDS011;5256;48.728;9.140;2023-03-25T05:55:26;0.60;;;0.60;;
10418;SDS011;5256;48.728;9.140;2023-03-25T05:57:52;0.60;;;0.60;;
10418;SDS011;5256;48.728;9.140;2023-03-25T06:00:18;0.70;;;0.70;;
10418;SDS011;5256;48.728;9.140;2023-03-25T06:02:45;0.70;;;0.70;;
10418;SDS011;5256;48.728;9.140;2023-03-25T06:05:12;0.60;;;0.60;;
10418;SDS011;5256;48.728;9.140;2023-03-25T06:07:39;0.60;;;0.60;;
10418;SDS011;5256;48.728;9.140;2023-03-25T06:10:10;0.60;;;0.60;;
10418;SDS011;5256;48.728;9.140;2023-03-25T06:12:37;0.50;;;0.50;;
10418;SDS011;5256;48.728;9.140;2023-03-25T06:15:07;0.70;;;0.70;;
10418;SDS011;5256;48.728;9.140;2023-03-25T06:17:34;0.60;;;0.60;;
10418;SDS011;5256;48.728;9.140;2023-03-25T06:20:02;0.60;;;0.60;;
10418;SDS011;5256;48.728;9.140;2023-03-25T06:22:36;0.60;;;0.60;;
10418;SDS011;5256;48.728;9.140;2023-03-25T06:25:02;0.60;;;0.60;;
10418;SDS011;5256;48.728;9.140;2023-03-25T06:27:28;0.60;;;0.60;;
10418;SDS011;5256;48.728;9.140;2023-03-25T06:29:53;0.60;;;0.60;;
10418;SDS011;5256;48.728;9.140;2023-03-25T06:32:19;0.63;;;0.63;;
10418;SDS011;5256;48.728;9.140;2023-03-25T06:34:45;0.60;;;0.60;;
10418;SDS011;5256;48.728;9.140;2023-03-25T06:37:10;0.60;;;0.60;;
10418;SDS011;5256;48.728;9.140;2023-03-25T06:39:36;0.50;;;0.50;;
10418;SDS011;5256;48.728;9.140;2023-03-25T06:42:02;0.60;;;0.60;;
10418;SDS011;5256;48.728;9.140;2023-03-25T06:44:28;0.60;;;0.60;;
10418;SDS011;5256;48.728;9.140;2023-03-25T06:46:54;0.60;;;0.60;;
10418;SDS011;5256;48.728;9.140;2023-03-25T06:49:20;0.60;;;0.60;;
10418;SDS011;5256;48.728;9.140;2023-03-25T06:51:46;0.50;;;0.50;;
10418;SDS011;5256;48.728;9.140;2023-03-25T06:54:11;0.50;;;0.50;;
10418;SDS011;5256;48.728;9.140;2023-03-25T06:56:37;0.50;;;0.50;;
10418;SDS011;5256;48.728;9.140;2023-03-25T06:59:03;0.50;;;0.50;;
10418;SDS011;5256;48.728;9.140;2023-03-25T07:01:29;0.60;;;0.60;;
10418;SDS011;5256;48.728;9.140;2023-03-25T07:03:54;0.60;;;0.60;;
10418;SDS011;5256;48.728;9.140;2023-03-25T07:06:20;0.57;;;0.57;;
10418;SDS011;5256;48.728;9.140;2023-03-25T07:08:47;0.50;;;0.50;;
10418;SDS011;5256;48.728;9.140;2023-03-25T07:11:13;0.50;;;0.50;;
10418;SDS011;5256;48.728;9.140;2023-03-25T07:13:40;0.47;;;0.47;;
10418;SDS011;5256;48.728;9.140;2023-03-25T07:16:06;0.50;;;0.50;;
10418;SDS011;5256;48.728;9.140;2023-03-25T07:18:32;0.40;;;0.40;;
10418;SDS011;5256;48.728;9.140;2023-03-25T07:20:58;0.50;;;0.50;;
10418;SDS011;5256;48.728;9.140;2023-03-25T07:23:24;0.50;;;0.50;;
10418;SDS011;5256;48.728;9.140;2023-03-25T07:25:50;0.50;;;0.50;;
10418;SDS011;5256;48.728;9.140;2023-03-25T07:28:16;0.50;;;0.50;;
10418;SDS011;5256;48.728;9.140;2023-03-25T07:30:41;0.50;;;0.50;;
10418;SDS011;5256;48.728;9.140;2023-03-25T07:33:08;0.60;;;0.60;;
10418;SDS011;5256;48.728;9.140;2023-03-25T07:35:34;0.50;;;0.50;;
10418;SDS011;5256;48.728;9.140;2023-03-25T07:38:00;0.60;;;0.60;;
10418;SDS011;5256;48.728;9.140;2023-03-25T07:40:25;0.60;;;0.60;;
10418;SDS011;5256;48.728;9.140;2023-03-25T07:42:51;0.50;;;0.50;;
10418;SDS011;5256;48.728;9.140;2023-03-25T07:45:16;0.50;;;0.50;;
10418;SDS011;5256;48.728;9.140;2023-03-25T07:47:42;0.53;;;0.53;;
10418;SDS011;5256;48.728;9.140;2023-03-25T07:50:13;0.50;;;0.50;;
10418;SDS011;5256;48.728;9.140;2023-03-25T07:52:42;0.50;;;0.50;;
10418;SDS011;5256;48.728;9.140;2023-03-25T07:55:08;0.60;;;0.60;;
10418;SDS011;5256;48.728;9.140;2023-03-25T07:57:34;0.50;;;0.50;;
10418;SDS011;5256;48.728;9.140;2023-03-25T07:59:59;0.50;;;0.50;;
10418;SDS011;5256;48.728;9.140;2023-03-25T08:02:25;0.50;;;0.50;;
10418;SDS011;5256;48.728;9.140;2023-03-25T08:04:50;0.60;;;0.60;;
10418;SDS011;5256;48.728;9.140;2023-03-25T08:07:18;0.53;;;0.53;;
10418;SDS011;5256;48.728;9.140;2023-03-25T08:09:44;0.60;;;0.60;;
10418;SDS011;5256;48.728;9.140;2023-03-25T08:12:09;0.50;;;0.50;;
10418;SDS011;5256;48.728;9.140;2023-03-25T08:14:35;0.53;;;0.53;;
10418;SDS011;5256;48.728;9.140;2023-03-25T08:17:01;0.50;;;0.50;;
10418;SDS011;5256;48.728;9.140;2023-03-25T08:19:28;0.50;;;0.50;;
10418;SDS011;5256;48.728;9.140;2023-03-25T08:21:56;0.53;;;0.53;;
10418;SDS011;5256;48.728;9.140;2023-03-25T08:24:22;0.50;;;0.50;;
10418;SDS011;5256;48.728;9.140;2023-03-25T08:26:50;0.50;;;0.50;;
10418;SDS011;5256;48.728;9.140;2023-03-25T08:29:17;0.50;;;0.50;;
10418;SDS011;5256;48.728;9.140;2023-03-25T08:31:44;0.57;;;0.57;;
10418;SDS011;5256;48.728;9.140;2023-03-25T08:34:11;0.50;;;0.50;;
10418;SDS011;5256;48.728;9.140;2023-03-25T08:36:37;0.50;;;0.50;;
10418;SDS011;5256;48.728;9.140;2023-03-25T08:39:04;0.50;;;0.50;;
10418;SDS011;5256;48.728;9.140;2023-03-25T08:41:33;0.60;;;0.60;;
10418;SDS011;5256;48.728;9.140;2023-03-25T08:44:01;0.50;;;0.50;;
10418;SDS011;5256;48.728;9.140;2023-03-25T08:46:27;0.60;;;0.60;;
10418;SDS011;5256;48.728;9.140;2023-03-25T08:48:52;0.50;;;0.50;;
10418;SDS011;5256;48.728;9.140;2023-03-25T08:51:18;0.50;;;0.50;;
10418;SDS011;5256;48.728;9.140;2023-03-25T08:53:43;0.60;;;0.60;;
10418;SDS011;5256;48.728;9.140;2023-03-25T08:56:09;0.50;;;0.50;;
10418;SDS011;5256;48.728;9.140;2023-03-25T08:58:35;0.50;;;0.50;;
10418;SDS011;5256;48.728;9.140;2023-03-25T09:01:00;0.50;;;0.50;;
10418;SDS011;5256;48.728;9.140;2023-03-25T09:03:26;0.50;;;0.50;;
10418;SDS011;5256;48.728;9.140;2023-03-25T09:05:52;0.50;;;0.50;;
10418;SDS011;5256;48.728;9.140;2023-03-25T09:08:17;0.60;;;0.60;;
10418;SDS011;5256;48.728;9.140;2023-03-25T09:10:43;0.57;;;0.57;;
10418;SDS011;5256;48.728;9.140;2023-03-25T09:13:09;0.60;;;0.60;;
10418;SDS011;5256;48.728;9.140;2023-03-25T09:15:35;0.60;;;0.60;;
10418;SDS011;5256;48.728;9.140;2023-03-25T09:18:00;0.60;;;0.60;;
10418;SDS011;5256;48.728;9.140;2023-03-25T09:20:26;0.57;;;0.57;;
10418;SDS011;5256;48.728;9.140;2023-03-25T09:22:52;0.50;;;0.50;;
10418;SDS011;5256;48.728;9.140;2023-03-25T09:25:18;0.60;;;0.60;;
10418;SDS011;5256;48.728;9.140;2023-03-25T09:27:43;0.50;;;0.50;;
10418;SDS011;5256;48.728;9.140;2023-03-25T09:30:09;0.50;;;0.50;;
10418;SDS011;5256;48.728;9.140;2023-03-25T09:32:35;0.50;;;0.50;;
10418;SDS011;5256;48.728;9.140;2023-03-25T09:35:01;0.50;;;0.50;;
10418;SDS011;5256;48.728;9.140;2023-03-25T09:37:27;0.60;;;0.60;;
10418;SDS011;5256;48.728;9.140;2023-03-25T09:39:52;0.40;;;0.40;;
10418;SDS011;5256;48.728;9.140;2023-03-25T09:43:01;0.50;;;0.50;;
10418;SDS011;5256;48.728;9.140;2023-03-25T09:47:58;0.50;;;0.50;;
10418;SDS011;5256;48.728;9.140;2023-03-25T09:50:37;0.50;;;0.50;;
10418;SDS011;5256;48.728;9.140;2023-03-25T09:55:36;0.60;;;0.60;;
10418;SDS011;5256;48.728;9.140;2023-03-25T10:03:55;0.50;;;0.50;;
10418;SDS011;5256;48.728;9.140;2023-03-25T10:06:33;0.60;;;0.60;;
10418;SDS011;5256;48.728;9.140;2023-03-25T10:09:11;0.50;;;0.50;;
10418;SDS011;5256;48.728;9.140;2023-03-25T10:20:46;0.35;;;0.35;;
10418;SDS011;5256;48.728;9.140;2023-03-25T10:28:45;0.40;;;0.40;;
10418;SDS011;5256;48.728;9.140;2023-03-25T10:31:22;0.60;;;0.60;;
10418;SDS011;5256;48.728;9.140;2023-03-25T10:33:52;0.50;;;0.50;;
10418;SDS011;5256;48.728;9.140;2023-03-25T10:36:20;0.60;;;0.60;;
10418;SDS011;5256;48.728;9.140;2023-03-25T10:38:53;0.50;;;0.50;;
10418;SDS011;5256;48.728;9.140;2023-03-25T10:41:22;0.50;;;0.50;;
10418;SDS011;5256;48.728;9.140;2023-03-25T10:43:48;0.50;;;0.50;;
10418;SDS011;5256;48.728;9.140;2023-03-25T10:46:21;0.60;;;0.60;;
10418;SDS011;5256;48.728;9.140;2023-03-25T10:48:52;0.40;;;0.40;;
10418;SDS011;5256;48.728;9.140;2023-03-25T10:51:18;0.50;;;0.50;;
10418;SDS011;5256;48.728;9.140;2023-03-25T10:53:48;0.40;;;0.40;;
10418;SDS011;5256;48.728;9.140;2023-03-25T10:56:24;0.40;;;0.40;;
10418;SDS011;5256;48.728;9.140;2023-03-25T10:58:54;0.50;;;0.50;;
10418;SDS011;5256;48.728;9.140;2023-03-25T11:01:25;0.40;;;0.40;;
10418;SDS011;5256;48.728;9.140;2023-03-25T11:03:58;0.50;;;0.50;;
10418;SDS011;5256;48.728;9.140;2023-03-25T11:06:29;0.40;;;0.40;;
10418;SDS011;5256;48.728;9.140;2023-03-25T11:11:43;0.50;;;0.50;;
10418;SDS011;5256;48.728;9.140;2023-03-25T11:14:10;0.60;;;0.60;;
10418;SDS011;5256;48.728;9.140;2023-03-25T11:16:55;0.40;;;0.40;;
10418;SDS011;5256;48.728;9.140;2023-03-25T11:19:49;0.50;;;0.50;;
10418;SDS011;5256;48.728;9.140;2023-03-25T11:22:17;0.40;;;0.40;;
10418;SDS011;5256;48.728;9.140;2023-03-25T11:24:47;0.47;;;0.47;;
10418;SDS011;5256;48.728;9.140;2023-03-25T11:27:18;0.47;;;0.47;;
10418;SDS011;5256;48.728;9.140;2023-03-25T11:29:49;0.47;;;0.47;;
10418;SDS011;5256;48.728;9.140;2023-03-25T11:32:21;0.50;;;0.50;;
10418;SDS011;5256;48.728;9.140;2023-03-25T11:34:49;0.50;;;0.50;;
10418;SDS011;5256;48.728;9.140;2023-03-25T11:37:16;0.60;;;0.60;;
10418;SDS011;5256;48.728;9.140;2023-03-25T11:39:48;0.60;;;0.60;;
10418;SDS011;5256;48.728;9.140;2023-03-25T11:44:42;0.40;;;0.40;;
10418;SDS011;5256;48.728;9.140;2023-03-25T11:47:20;0.40;;;0.40;;
10418;SDS011;5256;48.728;9.140;2023-03-25T11:49:50;0.50;;;0.50;;
10418;SDS011;5256;48.728;9.140;2023-03-25T11:52:21;0.40;;;0.40;;
10418;SDS011;5256;48.728;9.140;2023-03-25T11:54:54;0.50;;;0.50;;
10418;SDS011;5256;48.728;9.140;2023-03-25T11:57:24;0.50;;;0.50;;
10418;SDS011;5256;48.728;9.140;2023-03-25T12:03:19;0.50;;;0.50;;
10418;SDS011;5256;48.728;9.140;2023-03-25T12:06:01;0.50;;;0.50;;
10418;SDS011;5256;48.728;9.140;2023-03-25T12:08:28;0.40;;;0.40;;
10418;SDS011;5256;48.728;9.140;2023-03-25T12:11:09;0.40;;;0.40;;
10418;SDS011;5256;48.728;9.140;2023-03-25T12:16:36;0.40;;;0.40;;
10418;SDS011;5256;48.728;9.140;2023-03-25T12:19:24;0.40;;;0.40;;
10418;SDS011;5256;48.728;9.140;2023-03-25T12:36:28;0.40;;;0.40;;
10418;SDS011;5256;48.728;9.140;2023-03-25T12:39:03;0.40;;;0.40;;
10418;SDS011;5256;48.728;9.140;2023-03-25T12:41:33;0.50;;;0.50;;
10418;SDS011;5256;48.728;9.140;2023-03-25T12:47:13;0.40;;;0.40;;
10418;SDS011;5256;48.728;9.140;2023-03-25T12:49:57;0.50;;;0.50;;
10418;SDS011;5256;48.728;9.140;2023-03-25T13:00:41;0.50;;;0.50;;
10418;SDS011;5256;48.728;9.140;2023-03-25T13:03:34;0.40;;;0.40;;
10418;SDS011;5256;48.728;9.140;2023-03-25T13:06:23;0.50;;;0.50;;
10418;SDS011;5256;48.728;9.140;2023-03-25T13:11:30;0.47;;;0.47;;
10418;SDS011;5256;48.728;9.140;2023-03-25T13:14:04;0.40;;;0.40;;
10418;SDS011;5256;48.728;9.140;2023-03-25T13:16:39;0.50;;;0.50;;
10418;SDS011;5256;48.728;9.140;2023-03-25T13:19:27;0.50;;;0.50;;
10418;SDS011;5256;48.728;9.140;2023-03-25T13:21:56;0.40;;;0.40;;
10418;SDS011;5256;48.728;9.140;2023-03-25T13:27:00;0.43;;;0.43;;
10418;SDS011;5256;48.728;9.140;2023-03-25T13:29:29;0.50;;;0.50;;
10418;SDS011;5256;48.728;9.140;2023-03-25T13:32:01;0.50;;;0.50;;
10418;SDS011;5256;48.728;9.140;2023-03-25T13:39:53;0.40;;;0.40;;
10418;SDS011;5256;48.728;9.140;2023-03-25T13:42:49;0.50;;;0.50;;
10418;SDS011;5256;48.728;9.140;2023-03-25T13:45:23;0.40;;;0.40;;
10418;SDS011;5256;48.728;9.140;2023-03-25T13:50:47;0.50;;;0.50;;
10418;SDS011;5256;48.728;9.140;2023-03-25T14:10:20;0.50;;;0.50;;
10418;SDS011;5256;48.728;9.140;2023-03-25T14:12:52;0.50;;;0.50;;
10418;SDS011;5256;48.728;9.140;2023-03-25T14:17:55;0.47;;;0.47;;
10418;SDS011;5256;48.728;9.140;2023-03-25T14:20:22;0.40;;;0.40;;
10418;SDS011;5256;48.728;9.140;2023-03-25T14:23:14;0.40;;;0.40;;
10418;SDS011;5256;48.728;9.140;2023-03-25T14:25:57;0.40;;;0.40;;
10418;SDS011;5256;48.728;9.140;2023-03-25T14:28:36;0.60;;;0.60;;
10418;SDS011;5256;48.728;9.140;2023-03-25T14:31:05;0.50;;;0.50;;
10418;SDS011;5256;48.728;9.140;2023-03-25T14:36:27;0.43;;;0.43;;
10418;SDS011;5256;48.728;9.140;2023-03-25T14:38:56;0.40;;;0.40;;
10418;SDS011;5256;48.728;9.140;2023-03-25T14:44:20;0.50;;;0.50;;
10418;SDS011;5256;48.728;9.140;2023-03-25T14:46:46;0.50;;;0.50;;
10418;SDS011;5256;48.728;9.140;2023-03-25T14:51:48;0.40;;;0.40;;
10418;SDS011;5256;48.728;9.140;2023-03-25T14:54:33;0.40;;;0.40;;
10418;SDS011;5256;48.728;9.140;2023-03-25T14:57:12;0.53;;;0.53;;
10418;SDS011;5256;48.728;9.140;2023-03-25T14:59:50;0.40;;;0.40;;
10418;SDS011;5256;48.728;9.140;2023-03-25T15:02:20;0.47;;;0.47;;
10418;SDS011;5256;48.728;9.140;2023-03-25T15:05:35;0.40;;;0.40;;
10418;SDS011;5256;48.728;9.140;2023-03-25T15:07:43;0.30;;;0.30;;
10418;SDS011;5256;48.728;9.140;2023-03-25T15:10:37;0.50;;;0.50;;
10418;SDS011;5256;48.728;9.140;2023-03-25T15:13:11;0.30;;;0.30;;
10418;SDS011;5256;48.728;9.140;2023-03-25T15:21:09;0.40;;;0.40;;
10418;SDS011;5256;48.728;9.140;2023-03-25T15:23:46;0.40;;;0.40;;
10418;SDS011;5256;48.728;9.140;2023-03-25T15:32:00;0.47;;;0.47;;
10418;SDS011;5256;48.728;9.140;2023-03-25T15:46:32;0.40;;;0.40;;
10418;SDS011;5256;48.728;9.140;2023-03-25T15:52:11;0.50;;;0.50;;
10418;SDS011;5256;48.728;9.140;2023-03-25T15:57:39;0.50;;;0.50;;
10418;SDS011;5256;48.728;9.140;2023-03-25T16:02:47;0.40;;;0.40;;
10418;SDS011;5256;48.728;9.140;2023-03-25T16:05:17;0.53;;;0.53;;
10418;SDS011;5256;48.728;9.140;2023-03-25T16:07:43;0.40;;;0.40;;
10418;SDS011;5256;48.728;9.140;2023-03-25T16:10:18;0.40;;;0.40;;
10418;SDS011;5256;48.728;9.140;2023-03-25T16:12:53;0.50;;;0.50;;
10418;SDS011;5256;48.728;9.140;2023-03-25T16:15:26;0.40;;;0.40;;
10418;SDS011;5256;48.728;9.140;2023-03-25T16:17:55;0.40;;;0.40;;
10418;SDS011;5256;48.728;9.140;2023-03-25T16:20:24;0.40;;;0.40;;
10418;SDS011;5256;48.728;9.140;2023-03-25T16:22:55;0.40;;;0.40;;
10418;SDS011;5256;48.728;9.140;2023-03-25T16:25:27;0.40;;;0.40;;
10418;SDS011;5256;48.728;9.140;2023-03-25T16:28:02;0.50;;;0.50;;
10418;SDS011;5256;48.728;9.140;2023-03-25T16:30:33;0.40;;;0.40;;
10418;SDS011;5256;48.728;9.140;2023-03-25T16:35:36;0.50;;;0.50;;
10418;SDS011;5256;48.728;9.140;2023-03-25T16:38:04;0.50;;;0.50;;
10418;SDS011;5256;48.728;9.140;2023-03-25T16:40:37;0.50;;;0.50;;
10418;SDS011;5256;48.728;9.140;2023-03-25T16:43:12;0.50;;;0.50;;
10418;SDS011;5256;48.728;9.140;2023-03-25T16:45:43;0.40;;;0.40;;
10418;SDS011;5256;48.728;9.140;2023-03-25T16:48:12;0.57;;;0.57;;
10418;SDS011;5256;48.728;9.140;2023-03-25T16:50:41;0.53;;;0.53;;
10418;SDS011;5256;48.728;9.140;2023-03-25T16:53:09;0.50;;;0.50;;
10418;SDS011;5256;48.728;9.140;2023-03-25T16:58:14;0.40;;;0.40;;
10418;SDS011;5256;48.728;9.140;2023-03-25T17:00:42;0.50;;;0.50;;
10418;SDS011;5256;48.728;9.140;2023-03-25T17:03:11;0.50;;;0.50;;
10418;SDS011;5256;48.728;9.140;2023-03-25T17:05:49;0.53;;;0.53;;
10418;SDS011;5256;48.728;9.140;2023-03-25T17:08:24;0.50;;;0.50;;
10418;SDS011;5256;48.728;9.140;2023-03-25T17:10:56;0.40;;;0.40;;
10418;SDS011;5256;48.728;9.140;2023-03-25T17:13:45;0.40;;;0.40;;
10418;SDS011;5256;48.728;9.140;2023-03-25T17:16:19;0.40;;;0.40;;
10418;SDS011;5256;48.728;9.140;2023-03-25T17:18:48;0.50;;;0.50;;
10418;SDS011;5256;48.728;9.140;2023-03-25T17:21:22;0.50;;;0.50;;
10418;SDS011;5256;48.728;9.140;2023-03-25T17:23:53;0.60;;;0.60;;
10418;SDS011;5256;48.728;9.140;2023-03-25T17:26:31;0.40;;;0.40;;
10418;SDS011;5256;48.728;9.140;2023-03-25T17:29:00;0.50;;;0.50;;
10418;SDS011;5256;48.728;9.140;2023-03-25T17:34:09;0.50;;;0.50;;
10418;SDS011;5256;48.728;9.140;2023-03-25T17:37:01;0.50;;;0.50;;
10418;SDS011;5256;48.728;9.140;2023-03-25T17:39:29;0.40;;;0.40;;
10418;SDS011;5256;48.728;9.140;2023-03-25T17:42:04;0.40;;;0.40;;
10418;SDS011;5256;48.728;9.140;2023-03-25T17:44:37;0.50;;;0.50;;
10418;SDS011;5256;48.728;9.140;2023-03-25T17:47:10;0.43;;;0.43;;
10418;SDS011;5256;48.728;9.140;2023-03-25T17:49:38;0.40;;;0.40;;
10418;SDS011;5256;48.728;9.140;2023-03-25T17:52:05;0.50;;;0.50;;
10418;SDS011;5256;48.728;9.140;2023-03-25T17:54:35;0.40;;;0.40;;
10418;SDS011;5256;48.728;9.140;2023-03-25T17:57:02;0.40;;;0.40;;
10418;SDS011;5256;48.728;9.140;2023-03-25T17:59:38;0.40;;;0.40;;
10418;SDS011;5256;48.728;9.140;2023-03-25T18:02:12;0.50;;;0.50;;
10418;SDS011;5256;48.728;9.140;2023-03-25T18:04:39;0.50;;;0.50;;
10418;SDS011;5256;48.728;9.140;2023-03-25T18:07:06;0.40;;;0.40;;
10418;SDS011;5256;48.728;9.140;2023-03-25T18:09:32;0.50;;;0.50;;
10418;SDS011;5256;48.728;9.140;2023-03-25T18:11:58;0.50;;;0.50;;
10418;SDS011;5256;48.728;9.140;2023-03-25T18:14:24;0.50;;;0.50;;
10418;SDS011;5256;48.728;9.140;2023-03-25T18:16:51;0.47;;;0.47;;
10418;SDS011;5256;48.728;9.140;2023-03-25T18:19:19;0.50;;;0.50;;
10418;SDS011;5256;48.728;9.140;2023-03-25T18:21:47;0.50;;;0.50;;
10418;SDS011;5256;48.728;9.140;2023-03-25T18:24:12;0.50;;;0.50;;
10418;SDS011;5256;48.728;9.140;2023-03-25T18:26:39;0.50;;;0.50;;